Marble Falls' Hourly Summary for Wednesday, March 15, 2017
Hour Temp
(f)
RH
(%)
Solar Rad.
(MJ/m2)
Rainfall
(in)
Wind
(mph)
3/15/2017 12:00 AM 59 60 0 0 4.73
3/15/2017 1:00 AM 56 66 0 0 3.64
3/15/2017 2:00 AM 55 74 0 0 3.64
3/15/2017 3:00 AM 52 82 0 0 1.49
3/15/2017 4:00 AM 50 96 0 0 1.13
3/15/2017 5:00 AM 49 99 0 0 0.84
3/15/2017 6:00 AM 48 100 0 0 0.87
3/15/2017 7:00 AM 48 100 0 0 0.87
3/15/2017 8:00 AM 49 99 0.36 0 0.68
3/15/2017 9:00 AM 54 99 1.09 0 3.01
3/15/2017 10:00 AM 58 80 1.85 0 3.38
3/15/2017 11:00 AM 63 68 2.45 0 4.61
3/15/2017 12:00 PM 67 40 2.85 0 5.28
3/15/2017 1:00 PM 69 34 2.85 0 6.69
3/15/2017 2:00 PM 71 31 1.62 0 6.69
3/15/2017 3:00 PM 72 30 1.88 0 6.2
3/15/2017 4:00 PM 73 30 1.88 0 6.71
3/15/2017 5:00 PM 73 32 1.54 0 7.07
3/15/2017 6:00 PM 72 32 1.54 0 7.07
3/15/2017 7:00 PM 72 38 0.81 0 6.69
3/15/2017 8:00 PM 69 49 0.17 0 6.08
3/15/2017 9:00 PM 66 61 0 0 6.08
3/15/2017 10:00 PM 64 73 0 0 5.48
3/15/2017 11:00 PM 62 73 0 0 5.16
Data Summary 61 64 20.89 0.00 4.34